North Lawrence, New York
Current Conditions -  °F | °C
As of 1:53 PM on Friday 31 Oct 2014 (Local Time) from KMSS Reporting Station
Scattered Clouds Scattered Clouds  
Wind Chill: 42°   Ceiling: Unl
Heat Index: 46°   Visibility: 10mi
Dew Point: 30°   Wind: 7mph
Humidity: 54%   Direction: 70°ENE
Pressure: 30.04"   Gusts: NA
Location:  44.8°N, 74.68°W
Report Text: KMSS 311753Z AUTO 07006KT 10SM SCT110 08/M01 A3004 RMK AO2 SLP177 T00781011 10078 20000 58011
Loading
Personal Weather Stations






























Interactive Weather Map
Tropical Storm Tracking
New forecast layout! Learn more

10-Day Weather Forecast

Advertisements
Track Severe Weather on mobile